Time;durP1;ratioP1;P1;durP2;ratioP2;P2;SDS_P1;SDS_P2;PMS_P1;PMS_P2;Temp;Humidity;BMP_temperature;BMP_pressure;BME280_temperature;BME280_humidity;BME280_pressure;Samples;Min_cycle;Max_cycle;Signal;HPM_P1;HPM_P2
2022/03/08 00:00:22;;;;;;;42.95;21.58;;;;;;;3.99;56.76;100897.91;6295693;22;20011;-79
2022/03/08 00:02:54;;;;;;;41.05;21.58;;;;;;;3.93;57.24;100902.75;6296929;22;20003;-83
2022/03/08 00:05:39;;;;;;;56.22;25.50;;;;;;;3.40;59.33;100899.53;6295858;22;20004;-82
2022/03/08 00:08:05;;;;;;;49.63;24.45;;;;;;;3.32;60.31;100906.25;6265962;22;20063;-82
2022/03/08 00:10:50;;;;;;;50.85;24.20;;;;;;;3.46;59.09;100906.97;6295179;22;20008;-83
2022/03/08 00:13:19;;;;;;;57.05;25.02;;;;;;;3.06;60.74;100910.66;6287705;22;20019;-83
2022/03/08 00:16:05;;;;;;;62.45;27.08;;;;;;;2.99;61.16;100914.63;6302318;22;20000;-84
2022/03/08 00:19:04;;;;;;;58.65;24.90;;;;;;;2.66;62.70;100912.50;6299803;22;20023;-82
2022/03/08 00:21:39;;;;;;;48.55;24.08;;;;;;;2.95;61.98;100918.44;6294942;22;20059;-83
2022/03/08 00:24:06;;;;;;;48.65;23.65;;;;;;;3.34;60.62;100918.31;6330773;22;20014;-83
2022/03/08 00:26:47;;;;;;;46.83;23.58;;;;;;;3.12;61.23;100952.13;6329466;22;20007;-83
2022/03/08 00:29:18;;;;;;;53.88;25.65;;;;;;;2.56;64.13;100941.06;6271573;22;20075;-81
2022/03/08 00:32:03;;;;;;;;;;;;;;;;;;;;;
2022/03/08 00:34:45;;;;;;;53.85;25.80;;;;;;;2.43;65.60;100952.41;6328620;22;20030;-82
2022/03/08 00:37:25;;;;;;;64.22;27.60;;;;;;;2.47;65.46;100953.91;6277882;22;20016;-82
2022/03/08 00:40:12;;;;;;;58.63;26.58;;;;;;;2.38;67.02;100960.59;6332955;22;20041;-81
2022/03/08 00:42:56;;;;;;;53.85;26.33;;;;;;;2.18;67.34;100958.41;6331983;22;20023;-81
2022/03/08 00:45:29;;;;;;;60.20;26.88;;;;;;;2.24;67.90;100952.78;6331981;22;20018;-82
2022/03/08 00:48:20;;;;;;;59.38;26.25;;;;;;;2.29;67.68;100950.69;6299142;22;20069;-81
2022/03/08 00:51:00;;;;;;;59.75;28.30;;;;;;;2.34;67.34;100953.88;6292434;22;20050;-80
2022/03/08 00:53:26;;;;;;;56.92;26.45;;;;;;;2.16;67.83;100962.88;6292887;22;20035;-82
2022/03/08 00:55:55;;;;;;;64.15;29.98;;;;;;;2.08;69.17;100971.22;6295086;22;20008;-83
2022/03/08 00:58:48;;;;;;;71.75;30.60;;;;;;;2.17;68.62;100972.41;6297402;22;20091;-83
2022/03/08 01:01:38;;;;;;;67.60;30.35;;;;;;;1.94;68.49;100965.19;6279994;22;20019;-79
2022/03/08 01:04:04;;;;;;;62.40;30.48;;;;;;;1.97;69.17;100967.59;6298543;22;20031;-81
2022/03/08 01:11:58;;;;;;;51.03;23.85;;;;;;;1.77;70.33;100983.69;6268806;22;20012;-82
2022/03/08 01:14:30;;;;;;;71.40;32.22;;;;;;;1.62;70.63;100968.97;6237913;23;20070;-81
2022/03/08 01:17:11;;;;;;;69.32;31.42;;;;;;;1.60;71.23;100968.19;6208566;22;20104;-83
2022/03/08 01:19:57;;;;;;;63.08;31.20;;;;;;;1.59;70.89;100964.78;6234568;23;20031;-83
2022/03/08 01:22:36;;;;;;;60.17;30.50;;;;;;;1.60;72.23;100970.81;6278412;22;19995;-80
2022/03/08 01:25:20;;;;;;;65.38;30.27;;;;;;;1.65;70.66;100995.75;6328971;22;20030;-82
2022/03/08 01:28:16;;;;;;;60.45;28.30;;;;;;;1.59;71.56;100979.59;6327388;22;20015;-85
2022/03/08 01:31:00;;;;;;;65.68;30.23;;;;;;;1.38;72.31;100977.38;6329167;22;20012;-82
2022/03/08 01:33:45;;;;;;;63.80;30.02;;;;;;;1.39;72.43;100980.81;6317963;22;20011;-84
2022/03/08 01:36:13;;;;;;;67.50;31.35;;;;;;;1.46;72.18;100988.16;6304970;22;20050;-83
2022/03/08 01:39:03;;;;;;;60.08;30.45;;;;;;;1.43;72.31;100980.53;6332816;22;20014;-85
2022/03/08 01:42:01;;;;;;;64.32;29.38;;;;;;;1.41;72.46;100974.56;6330333;22;20022;-84
2022/03/08 01:44:27;;;;;;;68.55;32.70;;;;;;;1.23;73.88;100977.41;6330165;22;20022;-83
2022/03/08 01:46:54;;;;;;;68.35;30.33;;;;;;;1.11;74.36;100989.44;6314257;22;20019;-83
2022/03/08 01:49:45;;;;;;;65.68;31.42;;;;;;;1.13;74.88;100982.34;6326271;22;20603;-82
2022/03/08 01:52:38;;;;;;;65.32;31.65;;;;;;;1.16;73.58;100982.16;6293765;22;20087;-84
2022/03/08 01:59:14;;;;;;;67.97;31.35;;;;;;;1.16;73.20;100995.22;6211778;23;20025;-83
2022/03/08 02:02:11;;;;;;;76.90;30.58;;;;;;;1.02;74.86;100990.00;6238328;23;20016;-84
2022/03/08 02:12:30;;;;;;;62.15;29.30;;;;;;;0.68;77.90;100995.47;6297774;22;20046;-83
2022/03/08 02:15:16;;;;;;;62.95;30.30;;;;;;;0.66;78.33;100995.59;6269469;22;19999;-81
2022/03/08 02:17:53;;;;;;;61.97;28.73;;;;;;;0.78;77.74;100997.47;6297299;22;19992;-81
2022/03/08 02:20:58;;;;;;;68.55;30.10;;;;;;;0.68;78.62;100995.47;6269300;22;20051;-81
2022/03/08 02:24:07;;;;;;;64.57;30.67;;;;;;;0.65;80.19;101004.31;6207100;23;20021;-78
2022/03/08 02:34:57;;;;;;;59.33;29.20;;;;;;;0.57;80.22;101000.44;6262548;22;20016;-81
2022/03/08 02:37:24;;;;;;;59.80;28.23;;;;;;;0.60;80.43;101008.13;6259309;22;20032;-81
2022/03/08 02:39:54;;;;;;;58.67;29.88;;;;;;;0.62;80.29;101007.09;6270145;22;20019;-80
2022/03/08 02:42:46;;;;;;;51.63;26.55;;;;;;;0.62;80.30;101007.09;6266386;23;20026;-81
2022/03/08 02:45:20;;;;;;;56.10;25.67;;;;;;;0.67;80.14;101004.22;6234934;22;20004;-80
2022/03/08 02:47:55;;;;;;;59.15;29.08;;;;;;;0.73;79.76;101011.72;6257728;23;20016;-80
2022/03/08 02:50:26;;;;;;;62.92;28.67;;;;;;;0.89;79.58;101022.94;6241060;23;20012;-83
2022/03/08 02:52:56;;;;;;;64.72;27.13;;;;;;;0.87;78.45;101020.41;6269204;23;20008;-82
2022/03/08 02:55:41;;;;;;;56.15;26.88;;;;;;;1.03;78.43;101022.97;6266450;22;20000;-82
2022/03/08 02:58:29;;;;;;;56.75;28.15;;;;;;;1.24;77.21;101026.94;6248800;22;20065;-81
2022/03/08 03:01:06;;;;;;;58.25;27.23;;;;;;;1.19;76.11;101020.31;6230717;23;20088;-83
2022/03/08 03:03:51;;;;;;;52.72;26.77;;;;;;;1.09;76.98;101022.63;6313493;22;20072;-83
2022/03/08 03:06:21;;;;;;;52.22;27.65;;;;;;;1.03;77.54;101017.75;6360320;22;20059;-82
2022/03/08 03:09:12;;;;;;;56.72;25.98;;;;;;;1.31;76.12;101017.81;6360257;22;20045;-79
2022/03/08 03:12:01;;;;;;;62.08;26.45;;;;;;;1.44;74.41;101024.00;6363411;22;20037;-82
2022/03/08 03:14:54;;;;;;;52.85;25.90;;;;;;;1.38;74.83;101023.53;6363414;22;20007;-83
2022/03/08 03:17:47;;;;;;;55.17;26.48;;;;;;;1.43;74.97;101024.06;6343018;22;19995;-81
2022/03/08 03:39:28;;;;;;;48.80;23.40;;;;;;;1.51;74.12;101038.38;6240133;22;20016;-83
2022/03/08 03:41:57;;;;;;;66.78;29.83;;;;;;;1.69;73.56;101043.44;6207545;22;20024;-81
2022/03/08 03:45:02;;;;;;;56.20;27.10;;;;;;;1.55;73.22;101045.09;6242009;23;20016;-82
2022/03/08 03:47:59;;;;;;;57.45;28.08;;;;;;;1.60;73.09;101039.56;6176431;23;20032;-83
2022/03/08 03:50:26;;;;;;;61.28;29.77;;;;;;;1.64;72.62;101042.84;6158013;23;20006;-82
2022/03/08 03:52:52;;;;;;;57.25;29.00;;;;;;;1.77;71.54;101042.00;6180036;23;20040;-80
2022/03/08 03:55:22;;;;;;;57.42;28.42;;;;;;;1.91;71.09;101055.09;6183014;23;20002;-81
2022/03/08 03:58:00;;;;;;;55.33;27.05;;;;;;;2.01;70.26;101050.97;6295742;22;20019;-80
2022/03/08 04:00:37;;;;;;;54.28;26.75;;;;;;;1.88;70.21;101059.66;6312439;22;20017;-82
2022/03/08 04:03:03;;;;;;;51.45;26.58;;;;;;;1.82;70.64;101060.88;6328280;22;20571;-84
2022/03/08 04:05:29;;;;;;;63.00;29.50;;;;;;;1.55;71.94;101063.38;6298236;22;20012;-83
2022/03/08 04:08:02;;;;;;;59.60;28.17;;;;;;;1.59;72.34;101057.97;6297384;22;20075;-84
2022/03/08 04:10:53;;;;;;;55.35;27.98;;;;;;;1.55;71.98;101055.53;6294008;22;20015;-83
2022/03/08 04:16:15;;;;;;;67.13;28.67;;;;;;;1.41;73.67;101065.97;6322262;22;20030;-82
2022/03/08 04:18:50;;;;;;;56.45;28.55;;;;;;;1.35;73.82;101066.34;6324280;22;20026;-83
2022/03/08 04:21:19;;;;;;;68.13;28.02;;;;;;;1.31;74.36;101075.25;6306115;22;20023;-83
2022/03/08 04:23:45;;;;;;;60.25;29.33;;;;;;;1.52;72.82;101073.16;6324550;22;20322;-86
2022/03/08 04:26:23;;;;;;;56.58;29.38;;;;;;;1.21;73.97;101078.50;6324458;22;20022;-83
2022/03/08 04:28:49;;;;;;;61.42;28.10;;;;;;;1.19;75.16;101076.00;6319117;22;20017;-82
2022/03/08 04:31:14;;;;;;;57.15;28.38;;;;;;;1.23;74.80;101082.69;6300345;22;20011;-84
2022/03/08 04:33:43;;;;;;;59.08;29.88;;;;;;;1.08;74.91;101078.38;6292885;22;20026;-84
2022/03/08 04:36:18;;;;;;;60.22;30.23;;;;;;;1.20;74.92;101079.41;6263820;22;20012;-84
2022/03/08 04:38:44;;;;;;;57.85;27.27;;;;;;;1.23;75.07;101085.31;6293611;22;20007;-82
2022/03/08 04:41:26;;;;;;;60.47;28.08;;;;;;;1.65;72.15;101086.34;6297528;22;20095;-84
2022/03/08 04:43:54;;;;;;;57.60;28.85;;;;;;;1.69;71.94;101091.25;6268299;22;20026;-84
2022/03/08 04:46:27;;;;;;;59.70;28.83;;;;;;;1.78;71.89;101090.72;6312149;22;20018;-83
2022/03/08 04:49:13;;;;;;;65.43;30.13;;;;;;;1.77;71.67;101089.03;6297152;22;20015;-84
2022/03/08 04:51:39;;;;;;;61.50;29.00;;;;;;;1.81;70.98;101100.16;6297990;22;20012;-83
2022/03/08 04:54:05;;;;;;;67.40;30.20;;;;;;;1.78;71.46;101095.13;6263195;22;20012;-81
2022/03/08 04:56:34;;;;;;;57.90;30.02;;;;;;;1.54;73.29;101094.81;6267278;22;20066;-82
2022/03/08 04:58:59;;;;;;;70.40;31.73;;;;;;;1.41;74.64;101102.53;6286847;22;20087;-83
2022/03/08 05:01:25;;;;;;;58.63;30.33;;;;;;;1.88;72.34;101106.69;6295240;22;20011;-80
2022/03/08 05:03:51;;;;;;;66.47;29.95;;;;;;;1.55;73.32;101102.56;6292058;22;20014;-83
2022/03/08 05:06:29;;;;;;;66.32;30.58;;;;;;;1.46;74.47;101095.25;6290828;22;20008;-81
2022/03/08 05:09:08;;;;;;;62.53;28.33;;;;;;;1.70;73.51;101095.56;6265669;22;20026;-82
2022/03/08 05:11:38;;;;;;;59.08;30.00;;;;;;;1.78;72.67;101095.97;6292475;22;20064;-85
2022/03/08 05:14:03;;;;;;;58.63;30.08;;;;;;;1.43;73.63;101095.44;6284514;22;20011;-83
2022/03/08 05:25:21;;;;;;;49.03;22.48;;;;;;;1.64;73.05;101100.31;6238464;23;20011;-88
2022/03/08 05:27:52;;;;;;;69.72;30.88;;;;;;;1.65;73.48;101099.41;6239114;23;20010;-85
2022/03/08 05:30:45;;;;;;;64.47;29.60;;;;;;;1.62;73.00;101102.19;6237325;23;20003;-83
2022/03/08 05:33:14;;;;;;;63.42;30.92;;;;;;;1.56;73.68;101104.22;6235788;23;20352;-86
2022/03/08 05:35:50;;;;;;;65.53;30.25;;;;;;;1.25;74.90;101101.75;6238357;23;19989;-85
2022/03/08 05:38:19;;;;;;;64.43;31.27;;;;;;;0.93;77.28;101106.16;6235546;23;20009;-84
2022/03/08 05:40:46;;;;;;;68.72;31.20;;;;;;;0.95;76.84;101099.13;6264694;23;20058;-85
2022/03/08 05:43:55;;;;;;;62.40;31.00;;;;;;;0.69;79.35;101097.13;6235003;23;19984;-86
2022/03/08 05:46:51;;;;;;;66.47;29.70;;;;;;;0.37;81.10;101096.28;6262447;22;20019;-83
2022/03/08 05:49:25;;;;;;;62.47;29.90;;;;;;;0.50;79.99;101105.09;6276186;22;20061;-80
2022/03/08 05:51:54;;;;;;;68.28;29.52;;;;;;;0.54;79.64;101108.38;6299557;22;20007;-82
2022/03/08 05:54:28;;;;;;;57.60;27.83;;;;;;;0.89;78.04;101104.69;6299327;22;20027;-81
2022/03/08 05:56:57;;;;;;;53.03;27.75;;;;;;;1.08;76.68;101104.47;6295663;22;20562;-82
2022/03/08 05:59:28;;;;;;;63.30;28.83;;;;;;;0.91;75.99;101109.81;6280014;22;20007;-82
2022/03/08 06:01:57;;;;;;;68.35;29.27;;;;;;;0.80;77.00;101099.97;6282302;22;20007;-79
2022/03/08 06:04:22;;;;;;;56.55;28.55;;;;;;;0.79;76.54;101106.13;6279038;22;20000;-80
2022/03/08 06:06:49;;;;;;;65.68;28.90;;;;;;;0.89;77.41;101103.84;6280741;22;20020;-81
2022/03/08 06:09:15;;;;;;;59.90;28.42;;;;;;;0.75;77.10;101098.53;6281719;22;20015;-81
2022/03/08 06:11:41;;;;;;;59.25;27.85;;;;;;;0.50;79.43;101093.84;6254929;22;20004;-84
2022/03/08 06:14:09;;;;;;;62.90;29.00;;;;;;;0.38;80.81;101087.53;6282173;22;20014;-83
2022/03/08 06:16:41;;;;;;;65.68;29.02;;;;;;;0.38;79.85;101087.53;6284361;22;20308;-82
2022/03/08 06:19:09;;;;;;;58.95;28.70;;;;;;;0.22;81.16;101086.69;6256467;22;20368;-83
2022/03/08 06:21:35;;;;;;;60.05;29.35;;;;;;;0.01;81.89;101087.81;6255496;22;20008;-84
2022/03/08 06:24:01;;;;;;;64.07;29.50;;;;;;;-0.22;84.13;101096.00;6282856;22;20034;-85
2022/03/08 06:26:27;;;;;;;67.28;31.33;;;;;;;-0.08;83.98;101090.91;6283821;22;20012;-86
2022/03/08 06:28:54;;;;;;;64.13;30.63;;;;;;;0.02;83.57;101099.94;6283089;22;20347;-83
2022/03/08 06:31:20;;;;;;;63.83;28.73;;;;;;;0.05;83.23;101114.56;6282490;22;20011;-82
2022/03/08 06:33:49;;;;;;;61.15;29.40;;;;;;;0.27;82.13;101109.88;6254628;22;20010;-85
2022/03/08 06:36:24;;;;;;;62.70;30.38;;;;;;;0.34;82.05;101109.47;6291424;22;20012;-84
2022/03/08 06:38:51;;;;;;;57.63;27.50;;;;;;;0.63;80.29;101123.53;6251054;22;20011;-85
2022/03/08 06:41:17;;;;;;;54.17;27.42;;;;;;;0.89;79.30;101119.50;6228964;22;20081;-81
2022/03/08 06:43:43;;;;;;;58.25;27.42;;;;;;;0.81;78.14;101129.50;6283021;22;20008;-82
2022/03/08 06:46:11;;;;;;;62.15;28.33;;;;;;;0.92;78.11;101124.53;6255603;22;20012;-82
2022/03/08 06:48:37;;;;;;;64.38;28.30;;;;;;;1.47;74.14;101127.44;6282775;22;20004;-82
2022/03/08 06:51:06;;;;;;;60.65;27.73;;;;;;;1.50;72.76;101128.09;6282856;22;20115;-83
2022/03/08 06:53:32;;;;;;;57.03;28.63;;;;;;;1.25;74.46;101122.63;6281632;22;20031;-83
2022/03/08 06:55:58;;;;;;;64.18;28.92;;;;;;;1.34;74.21;101136.91;6280697;22;20007;-83
2022/03/08 06:58:26;;;;;;;71.90;28.23;;;;;;;1.45;72.67;101135.38;6280578;22;20466;-82
2022/03/08 07:00:53;;;;;;;60.33;28.17;;;;;;;1.20;74.62;101140.31;6281772;22;20012;-86
2022/03/08 07:03:18;;;;;;;54.90;27.35;;;;;;;1.36;73.51;101135.88;6282518;22;20065;-82
2022/03/08 07:05:49;;;;;;;65.40;28.10;;;;;;;1.39;73.75;101140.09;6256225;22;20010;-82
2022/03/08 07:08:15;;;;;;;67.10;28.85;;;;;;;1.48;74.94;101147.41;6281080;22;20039;-81
2022/03/08 07:10:41;;;;;;;58.17;26.45;;;;;;;1.82;72.10;101149.72;6281522;22;20058;-83
2022/03/08 07:13:06;;;;;;;56.38;27.77;;;;;;;1.86;71.90;101152.97;6280827;22;20026;-80
2022/03/08 07:15:32;;;;;;;58.08;26.63;;;;;;;1.81;71.32;101155.03;6281168;22;20011;-81
2022/03/08 07:17:58;;;;;;;61.45;26.45;;;;;;;1.84;71.29;101157.47;6253783;22;20004;-81
2022/03/08 07:20:24;;;;;;;65.10;27.55;;;;;;;1.80;71.36;101145.50;6280209;22;20019;-81
2022/03/08 07:22:50;;;;;;;60.60;28.13;;;;;;;1.56;73.63;101148.63;6280323;22;20050;-82
2022/03/08 07:25:16;;;;;;;54.63;26.23;;;;;;;1.50;75.22;101149.00;6280469;22;20339;-83
2022/03/08 07:27:42;;;;;;;59.75;28.85;;;;;;;1.29;76.71;101150.25;6279575;22;20023;-82
2022/03/08 07:30:10;;;;;;;60.78;27.65;;;;;;;1.25;77.76;101153.09;6293336;22;20000;-83
2022/03/08 07:32:38;;;;;;;55.15;27.80;;;;;;;1.43;78.07;101163.31;6266141;22;20008;-80
2022/03/08 07:36:04;;;;;;;55.53;26.85;;;;;;;1.39;77.92;101164.44;6297623;22;19992;-81
2022/03/08 07:39:20;;;;;;;58.42;27.60;;;;;;;1.40;79.19;101168.72;6229753;23;20016;-82
2022/03/08 07:42:10;;;;;;;63.20;26.33;;;;;;;1.57;77.50;101175.59;6232045;23;20100;-83
2022/03/08 07:44:39;;;;;;;56.15;26.67;;;;;;;1.79;76.99;101175.19;6231587;23;20368;-83
2022/03/08 07:47:21;;;;;;;63.85;27.75;;;;;;;1.93;76.43;101183.03;6237963;23;20000;-85
2022/03/08 07:50:15;;;;;;;56.50;27.77;;;;;;;1.90;76.67;101180.63;6268803;22;20026;-84
2022/03/08 07:52:43;;;;;;;54.10;26.67;;;;;;;1.95;76.24;101176.81;6287837;22;20019;-85
2022/03/08 07:55:12;;;;;;;57.15;28.48;;;;;;;2.08;76.20;101179.53;6263017;22;20026;-84
2022/03/08 07:57:58;;;;;;;61.20;26.67;;;;;;;2.14;76.03;101180.94;6265527;22;20019;-82
2022/03/08 08:00:25;;;;;;;57.22;27.15;;;;;;;2.49;74.48;101183.06;6260806;22;20011;-82
2022/03/08 08:05:28;;;;;;;57.65;26.88;;;;;;;2.90;71.62;101187.50;6232088;23;20055;-82
2022/03/08 08:07:55;;;;;;;58.42;29.48;;;;;;;2.81;70.10;101185.47;6233882;23;20099;-80
2022/03/08 08:10:20;;;;;;;55.55;26.00;;;;;;;3.08;69.24;101183.72;6230671;23;20012;-83
2022/03/08 08:12:46;;;;;;;58.80;25.83;;;;;;;2.97;70.99;101189.66;6253604;22;20012;-84
2022/03/08 08:15:16;;;;;;;54.17;26.40;;;;;;;2.95;70.33;101190.69;6232760;23;19993;-83
2022/03/08 08:17:58;;;;;;;63.20;27.25;;;;;;;2.66;72.01;101178.56;6235084;23;20075;-83
2022/03/08 08:20:32;;;;;;;48.00;26.77;;;;;;;2.58;74.40;101173.84;6248406;22;20038;-87
2022/03/08 08:23:32;;;;;;;51.83;25.98;;;;;;;2.54;74.75;101178.41;6227112;23;20008;-82
2022/03/08 08:26:04;;;;;;;60.83;27.02;;;;;;;2.57;74.82;101175.59;6237618;22;20015;-84
2022/03/08 08:29:08;;;;;;;50.97;24.05;;;;;;;2.60;75.54;101180.66;6272198;22;20027;-86
2022/03/08 08:32:04;;;;;;;59.38;27.40;;;;;;;2.58;76.63;101179.91;6292890;22;20042;-86
2022/03/08 08:35:08;;;;;;;50.78;25.20;;;;;;;2.70;76.06;101177.44;6260185;22;20103;-86
2022/03/08 08:37:56;;;;;;;48.88;24.05;;;;;;;2.78;75.21;101183.91;6264917;22;20020;-88
2022/03/08 08:40:43;;;;;;;52.63;24.45;;;;;;;2.83;73.11;101188.81;6331793;22;20022;-88
2022/03/08 08:43:46;;;;;;;49.15;22.92;;;;;;;2.87;72.81;101183.31;6357104;22;19999;-85
2022/03/08 08:46:23;;;;;;;59.00;24.40;;;;;;;2.94;73.79;101179.38;6338278;22;20015;-83
2022/03/08 08:49:03;;;;;;;49.30;22.88;;;;;;;3.31;70.24;101193.56;6365114;22;19999;-82
2022/03/08 08:54:17;;;;;;;41.58;21.25;;;;;;;3.73;66.49;101221.34;6298071;22;20019;-82
2022/03/08 08:56:42;;;;;;;42.47;20.70;;;;;;;3.76;65.47;101230.78;6343254;22;20051;-84
2022/03/08 08:59:08;;;;;;;43.63;21.23;;;;;;;3.94;64.04;101232.22;6314979;22;19999;-82
2022/03/08 09:01:35;;;;;;;47.03;21.95;;;;;;;4.04;64.12;101226.22;6315284;22;20457;-87
2022/03/08 09:04:03;;;;;;;44.55;23.17;;;;;;;3.88;67.29;101227.38;6294833;22;20044;-82
2022/03/08 09:06:29;;;;;;;46.03;23.55;;;;;;;4.05;69.10;101221.81;6345594;22;20059;-84
2022/03/08 09:08:58;;;;;;;49.22;22.38;;;;;;;4.18;69.15;101222.66;6342355;22;20014;-82
2022/03/08 09:11:24;;;;;;;46.88;22.13;;;;;;;4.07;66.93;101209.47;6341734;22;19999;-82
2022/03/08 09:13:50;;;;;;;47.83;20.23;;;;;;;4.09;62.55;101216.28;6341923;22;20023;-84
2022/03/08 09:16:15;;;;;;;40.22;20.90;;;;;;;3.98;65.25;101217.91;6346702;22;20398;-82
2022/03/08 09:18:44;;;;;;;39.53;20.00;;;;;;;4.31;63.84;101207.75;6343948;22;20038;-84
2022/03/08 09:21:12;;;;;;;43.42;20.83;;;;;;;4.35;62.72;101211.03;6315591;22;20007;-83
2022/03/08 09:23:38;;;;;;;39.42;19.88;;;;;;;4.66;61.65;101221.94;6363126;22;20003;-83
2022/03/08 09:26:05;;;;;;;38.33;19.40;;;;;;;4.62;61.91;101220.47;6363908;22;20010;-80
2022/03/08 09:28:31;;;;;;;40.42;19.70;;;;;;;4.75;61.75;101219.59;6348560;22;20429;-81
2022/03/08 09:30:59;;;;;;;48.05;22.48;;;;;;;4.60;64.19;101224.16;6342773;22;20006;-82
2022/03/08 09:33:25;;;;;;;56.65;22.70;;;;;;;4.61;64.26;101221.41;6341470;22;20457;-86
2022/03/08 09:35:50;;;;;;;43.58;21.90;;;;;;;4.39;66.45;101218.59;6319263;22;20007;-86
2022/03/08 09:38:17;;;;;;;43.90;20.83;;;;;;;4.62;62.91;101223.09;6322776;22;20011;-87
2022/03/08 09:40:47;;;;;;;46.75;22.08;;;;;;;4.82;62.61;101221.69;6319088;22;20511;-86
2022/03/08 09:43:16;;;;;;;47.97;22.20;;;;;;;5.01;62.56;101218.59;6345117;22;20031;-84
2022/03/08 09:45:42;;;;;;;44.83;22.55;;;;;;;4.64;64.25;101221.19;6341283;22;20002;-87
2022/03/08 09:48:11;;;;;;;48.03;22.02;;;;;;;4.94;62.62;101222.63;6316526;22;20007;-89
2022/03/08 09:50:36;;;;;;;49.95;22.75;;;;;;;4.94;63.34;101218.19;6350093;22;20011;-87
2022/03/08 09:53:03;;;;;;;42.15;22.02;;;;;;;5.06;62.62;101216.47;6357514;22;20028;-87
2022/03/08 09:56:09;;;;;;;47.97;22.60;;;;;;;5.21;61.50;101225.88;6352224;22;20007;-86
2022/03/08 09:58:36;;;;;;;43.67;21.92;;;;;;;5.29;61.35;101228.81;6337655;22;20018;-88
2022/03/08 10:01:03;;;;;;;44.33;20.45;;;;;;;5.55;59.28;101225.09;6298884;22;20099;-86
2022/03/08 10:03:55;;;;;;;55.17;21.05;;;;;;;5.74;58.36;101235.94;6325420;22;20022;-87
2022/03/08 10:06:22;;;;;;;44.67;21.08;;;;;;;5.79;57.84;101222.47;6353638;22;20011;-87
2022/03/08 10:08:48;;;;;;;38.55;20.85;;;;;;;5.72;57.29;101227.34;6298157;22;20092;-87
2022/03/08 10:11:14;;;;;;;41.58;20.45;;;;;;;6.09;55.89;101224.63;6289347;22;20017;-86
2022/03/08 10:13:45;;;;;;;38.30;19.15;;;;;;;6.07;54.38;101224.72;6315911;22;20330;-87
2022/03/08 10:16:22;;;;;;;41.25;18.55;;;;;;;6.02;53.85;101226.03;6290142;22;20015;-85
2022/03/08 10:18:57;;;;;;;38.97;20.33;;;;;;;6.27;54.20;101222.34;6316653;22;20339;-87
2022/03/08 10:21:41;;;;;;;36.42;19.60;;;;;;;6.63;52.19;101220.34;6320234;22;20018;-87
2022/03/08 10:24:16;;;;;;;35.20;18.60;;;;;;;6.79;50.30;101229.72;6355728;22;20017;-86
2022/03/08 10:26:54;;;;;;;31.48;17.35;;;;;;;6.79;49.69;101227.06;6349713;22;20017;-84
2022/03/08 10:29:32;;;;;;;;;;;;;;;6.46;50.77;101226.13;6319237;22;20015;-88
2022/03/08 10:34:34;;;;;;;35.83;18.55;;;;;;;6.51;51.33;101221.31;6264901;22;20012;-87
2022/03/08 10:37:17;;;;;;;31.83;15.48;;;;;;;6.80;49.13;101226.09;6253354;22;20019;-87
2022/03/08 10:39:56;;;;;;;24.48;13.00;;;;;;;6.76;47.42;101225.53;6252874;23;20023;-86
2022/03/08 10:42:27;;;;;;;23.45;12.38;;;;;;;7.07;45.99;101234.44;6253056;22;20435;-85
2022/03/08 10:45:14;;;;;;;19.33;8.77;;;;;;;7.23;43.13;101222.56;6250089;22;20342;-87
2022/03/08 10:53:08;;;;;;;10.33;6.07;;;;;;;7.90;39.70;101224.09;6251392;22;20243;-89
2022/03/08 10:55:35;;;;;;;13.13;7.72;;;;;;;7.94;39.83;101220.25;6222284;23;20098;-86
2022/03/08 10:58:05;;;;;;;13.73;7.28;;;;;;;8.27;39.15;101201.56;6222005;23;20022;-87
2022/03/08 11:00:37;;;;;;;19.30;7.35;;;;;;;8.79;38.03;101209.34;6250020;23;20014;-83
2022/03/08 11:03:08;;;;;;;13.63;7.00;;;;;;;8.96;35.63;101199.09;6251195;23;20012;-87
2022/03/08 11:05:37;;;;;;;13.10;6.70;;;;;;;8.92;35.81;101202.97;6251083;23;20018;-86
2022/03/08 11:08:07;;;;;;;19.13;7.35;;;;;;;8.80;35.69;101211.03;6253371;23;20023;-87
2022/03/08 11:11:15;;;;;;;14.65;8.00;;;;;;;8.99;34.40;101209.41;6271153;22;20012;-86
2022/03/08 11:13:42;;;;;;;19.33;7.78;;;;;;;8.85;34.23;101199.22;6275283;22;20020;-87
2022/03/08 11:16:09;;;;;;;12.88;6.93;;;;;;;8.51;34.61;101204.81;6249091;22;20027;-87
2022/03/08 11:18:36;;;;;;;14.50;6.60;;;;;;;8.86;34.06;101219.38;6274886;22;20004;-88
2022/03/08 11:21:02;;;;;;;12.30;7.50;;;;;;;8.70;34.84;101199.59;6244916;22;20043;-86
2022/03/08 11:23:29;;;;;;;10.60;6.30;;;;;;;8.90;34.40;101194.34;6273741;22;20007;-89
2022/03/08 11:25:56;;;;;;;14.02;7.38;;;;;;;8.93;34.18;101196.72;6247999;22;20000;-87
2022/03/08 11:28:21;;;;;;;14.02;7.57;;;;;;;8.81;32.67;101196.84;6247541;22;19992;-86
2022/03/08 11:30:51;;;;;;;13.02;8.07;;;;;;;8.80;34.17;101189.88;6226518;23;20018;-86
2022/03/08 11:33:36;;;;;;;11.73;7.45;;;;;;;8.90;33.64;101194.34;6251842;23;20023;-86
2022/03/08 11:36:19;;;;;;;11.70;6.85;;;;;;;8.87;34.60;101190.19;6251355;23;20008;-85
2022/03/08 11:39:21;;;;;;;16.65;7.65;;;;;;;8.39;35.49;101184.69;6249454;23;20400;-85
2022/03/08 11:41:53;;;;;;;15.88;7.50;;;;;;;8.13;36.27;101172.84;6224282;23;20008;-83
2022/03/08 11:44:34;;;;;;;13.07;8.18;;;;;;;8.30;34.66;101185.50;6250908;23;20030;-86
2022/03/08 11:47:12;;;;;;;15.23;8.55;;;;;;;8.87;33.90;101169.03;6250948;23;20038;-89
2022/03/08 11:49:56;;;;;;;18.25;10.20;;;;;;;9.75;31.88;101183.03;6251561;23;20051;-89
2022/03/08 11:52:27;;;;;;;21.77;10.00;;;;;;;9.58;32.93;101165.22;6252950;23;20023;-83
2022/03/08 11:55:12;;;;;;;19.25;9.90;;;;;;;10.19;32.35;101170.16;6254189;23;20008;-91
2022/03/08 11:57:58;;;;;;;18.42;10.23;;;;;;;10.76;30.91;101164.66;6227607;23;20475;-89
2022/03/08 12:00:32;;;;;;;14.50;8.32;;;;;;;10.60;30.35;101158.31;6223385;23;20402;-87
2022/03/08 12:03:08;;;;;;;18.65;9.05;;;;;;;10.21;30.94;101162.91;6226607;23;20433;-86
2022/03/08 12:05:58;;;;;;;16.40;9.07;;;;;;;9.21;32.89;101166.88;6252645;23;20012;-87
2022/03/08 12:08:27;;;;;;;16.42;8.68;;;;;;;9.68;32.39;101166.03;6256957;23;20008;-86
2022/03/08 12:11:00;;;;;;;14.20;8.50;;;;;;;10.89;30.99;101161.63;6226106;23;20012;-87
2022/03/08 12:13:34;;;;;;;19.30;9.85;;;;;;;11.83;29.27;101166.38;6223687;23;20062;-88
2022/03/08 12:16:28;;;;;;;19.88;10.25;;;;;;;11.60;29.02;101159.03;6253984;23;20004;-86
2022/03/08 12:18:55;;;;;;;;;;;;;;;11.41;29.77;101154.72;6256708;23;20067;-84
2022/03/08 12:21:27;;;;;;;21.98;9.52;;;;;;;10.59;30.37;101162.78;6224684;23;19923;-90
2022/03/08 12:24:08;;;;;;;19.75;9.68;;;;;;;9.53;32.18;101145.44;6254068;23;20308;-89
2022/03/08 12:26:56;;;;;;;21.25;9.80;;;;;;;8.90;33.00;101157.34;6227733;23;20012;-89
2022/03/08 12:29:50;;;;;;;18.02;10.07;;;;;;;8.75;33.59;101141.88;6254144;23;20042;-87
2022/03/08 12:32:29;;;;;;;21.98;11.07;;;;;;;8.58;33.96;101142.53;6253531;23;20015;-91
2022/03/08 12:34:58;;;;;;;17.58;10.77;;;;;;;8.57;34.19;101135.56;6227557;23;20039;-87
2022/03/08 12:37:35;;;;;;;19.75;11.23;;;;;;;8.73;34.66;101135.91;6197404;23;20023;-90
2022/03/08 12:40:06;;;;;;;21.55;11.07;;;;;;;8.62;34.66;101146.56;6243453;23;20343;-85
2022/03/08 12:42:37;;;;;;;20.20;10.88;;;;;;;8.68;34.66;101132.00;6221105;23;20011;-85
2022/03/08 12:45:14;;;;;;;19.95;11.02;;;;;;;8.79;34.79;101140.63;6222098;23;20541;-90
2022/03/08 12:47:46;;;;;;;22.73;11.73;;;;;;;8.70;34.84;101128.25;6250094;23;20313;-87
2022/03/08 12:50:11;;;;;;;20.15;10.70;;;;;;;8.48;35.21;101128.47;6224036;23;20011;-85
2022/03/08 12:52:51;;;;;;;25.20;11.27;;;;;;;8.77;34.99;101132.03;6240261;23;20015;-87
2022/03/08 12:55:20;;;;;;;22.55;11.50;;;;;;;8.81;34.39;101132.59;6220878;23;20012;-86
2022/03/08 12:57:53;;;;;;;25.05;11.55;;;;;;;8.67;34.91;101133.78;6221444;23;20437;-86
2022/03/08 13:00:43;;;;;;;19.50;11.52;;;;;;;8.77;34.74;101121.44;6223405;23;20005;-87
2022/03/08 13:03:12;;;;;;;20.10;10.90;;;;;;;8.55;35.15;101107.63;6249955;23;20015;-86
2022/03/08 13:05:41;;;;;;;18.83;11.38;;;;;;;8.64;35.77;101125.31;6251666;23;20142;-83